METAR 2014/11/27 :

EPMO 18:00: METAR EPMO 271800Z 08010KT 7000 OVC009 M02/M03 Q1023= EPMO 17:30: METAR EPMO 271730Z 08010KT 7000 OVC009 M02/M03 Q1023=

TAF 2014/11/27 :

EPMO 17:30: TAF EPMO 271730Z 2718/2803 09009KT 7000 OVC010 PROB40 2723/2803 3000 BR BKN005= EPMO 14:30: TAF EPMO 271430Z 2715/2724 11006KT 9999 BKN010 TEMPO 2715/2717 5000 BR=

Pogoda ogólna dla Polski